createdAt,value
2018-11-10T00:00:38.323Z,10.50
2018-11-10T00:03:07.221Z,10.50
2018-11-10T00:05:35.550Z,10.50
2018-11-10T00:08:03.935Z,10.50
2018-11-10T00:10:32.235Z,10.50
2018-11-10T00:13:07.014Z,10.60
2018-11-10T00:15:35.321Z,10.60
2018-11-10T00:18:03.650Z,10.80
2018-11-10T00:20:31.962Z,10.80
2018-11-10T00:23:00.287Z,10.70
2018-11-10T00:25:28.597Z,10.60
2018-11-10T00:27:56.931Z,10.60
2018-11-10T00:30:25.296Z,10.50
2018-11-10T00:32:53.697Z,10.40
2018-11-10T00:35:21.999Z,10.40
2018-11-10T00:37:50.348Z,10.40
2018-11-10T00:40:18.674Z,10.30
2018-11-10T00:42:47.013Z,10.30
2018-11-10T00:45:15.331Z,10.20
2018-11-10T00:47:43.695Z,10.10
2018-11-10T00:50:12.023Z,10.10
2018-11-10T00:52:40.370Z,10.10
2018-11-10T00:55:09.045Z,10.00
2018-11-10T00:57:37.394Z,10.00
2018-11-10T01:00:05.912Z,10.00
2018-11-10T01:02:34.214Z,10.10
2018-11-10T01:05:02.519Z,10.10
2018-11-10T01:07:30.900Z,10.10
2018-11-10T01:09:59.241Z,10.10
2018-11-10T01:12:27.595Z,10.20
2018-11-10T01:14:55.951Z,10.20
2018-11-10T01:17:24.300Z,10.20
2018-11-10T01:19:52.662Z,10.20
2018-11-10T01:22:21.023Z,10.30
2018-11-10T01:24:49.431Z,10.40
2018-11-10T01:27:17.726Z,10.40
2018-11-10T01:29:46.082Z,10.40
2018-11-10T01:32:14.423Z,10.50
2018-11-10T01:34:42.886Z,10.50
2018-11-10T01:37:11.222Z,10.70
2018-11-10T01:39:39.571Z,10.70
2018-11-10T01:42:07.923Z,10.70
2018-11-10T01:47:09.989Z,10.60
2018-11-10T01:49:38.329Z,10.70
2018-11-10T01:52:06.651Z,10.70
2018-11-10T01:54:35.014Z,10.70
2018-11-10T01:57:03.336Z,10.70
2018-11-10T01:59:31.684Z,10.60
2018-11-10T02:01:59.988Z,10.70
2018-11-10T02:04:28.354Z,10.70
2018-11-10T02:06:56.762Z,10.70
2018-11-10T02:09:25.057Z,10.70
2018-11-10T02:11:53.354Z,10.70
2018-11-10T02:14:21.708Z,10.70
2018-11-10T02:16:50.068Z,10.60
2018-11-10T02:19:18.395Z,10.60
2018-11-10T02:21:46.751Z,10.60
2018-11-10T02:24:15.111Z,10.60
2018-11-10T02:26:43.524Z,10.50
2018-11-10T02:29:11.859Z,10.50
2018-11-10T02:31:40.184Z,10.50
2018-11-10T02:34:08.545Z,10.40
2018-11-10T02:36:36.923Z,10.40
2018-11-10T02:39:07.239Z,10.30
2018-11-10T02:41:35.772Z,10.30
2018-11-10T02:44:04.148Z,10.20
2018-11-10T02:46:32.486Z,10.30
2018-11-10T02:49:00.799Z,10.30
2018-11-10T02:51:29.349Z,10.30
2018-11-10T02:53:57.678Z,10.30
2018-11-10T02:56:26.091Z,10.30
2018-11-10T02:58:54.396Z,10.30
2018-11-10T03:01:22.683Z,10.20
2018-11-10T03:03:50.983Z,10.30
2018-11-10T03:06:19.284Z,10.20
2018-11-10T03:08:47.682Z,10.20
2018-11-10T03:11:16.024Z,10.30
2018-11-10T03:13:44.319Z,10.30
2018-11-10T03:16:12.643Z,10.30
2018-11-10T03:18:40.997Z,10.40
2018-11-10T03:21:09.325Z,10.30
2018-11-10T03:23:37.639Z,10.30
2018-11-10T03:26:05.967Z,10.30
2018-11-10T03:28:34.266Z,10.30
2018-11-10T03:31:02.597Z,10.30
2018-11-10T03:33:30.892Z,10.40
2018-11-10T03:35:59.242Z,10.50
2018-11-10T03:38:27.534Z,10.40
2018-11-10T03:40:55.856Z,10.40
2018-11-10T03:43:24.165Z,10.50
2018-11-10T03:45:52.490Z,10.40
2018-11-10T03:48:20.787Z,10.40
2018-11-10T03:50:49.161Z,10.50
2018-11-10T03:53:17.469Z,10.50
2018-11-10T03:55:45.859Z,10.60
2018-11-10T03:58:14.241Z,10.60
2018-11-10T04:00:42.536Z,10.60
2018-11-10T04:03:10.815Z,10.60
2018-11-10T04:05:39.107Z,10.50
2018-11-10T04:08:07.403Z,10.60
2018-11-10T04:10:35.710Z,10.50
2018-11-10T04:13:04.003Z,10.50
2018-11-10T04:15:32.382Z,10.50
2018-11-10T04:18:00.684Z,10.60
2018-11-10T04:20:29.009Z,10.60
2018-11-10T04:22:57.324Z,10.60
2018-11-10T04:25:25.635Z,10.60
2018-11-10T04:27:53.944Z,10.70
2018-11-10T04:30:22.262Z,10.70
2018-11-10T04:32:50.585Z,10.70
2018-11-10T04:35:18.909Z,10.70
2018-11-10T04:37:47.203Z,10.70
2018-11-10T04:40:15.513Z,10.70
2018-11-10T04:42:43.838Z,10.70
2018-11-10T04:45:12.702Z,10.80
2018-11-10T04:47:41.055Z,10.80
2018-11-10T04:50:10.509Z,10.80
2018-11-10T04:52:38.936Z,10.80
2018-11-10T04:55:08.008Z,10.90
2018-11-10T04:57:36.302Z,10.90
2018-11-10T05:00:05.963Z,10.90
2018-11-10T05:02:34.259Z,10.90
2018-11-10T05:05:02.602Z,10.90
2018-11-10T05:07:30.911Z,10.80
2018-11-10T05:09:59.207Z,10.90
2018-11-10T05:12:27.527Z,10.90
2018-11-10T05:14:55.826Z,10.90
2018-11-10T05:17:24.145Z,10.90
2018-11-10T05:19:52.467Z,10.90
2018-11-10T05:22:20.781Z,10.90
2018-11-10T05:24:49.079Z,10.90
2018-11-10T05:27:17.394Z,10.90
2018-11-10T05:29:45.694Z,10.90
2018-11-10T05:32:14.033Z,11.00
2018-11-10T05:34:42.356Z,11.00
2018-11-10T05:37:10.809Z,11.10
2018-11-10T05:39:39.194Z,11.00
2018-11-10T05:42:07.523Z,11.10
2018-11-10T05:44:35.843Z,11.20
2018-11-10T05:47:04.215Z,11.20
2018-11-10T05:49:32.533Z,11.20
2018-11-10T05:52:00.876Z,11.20
2018-11-10T05:54:29.218Z,11.20
2018-11-10T05:56:57.551Z,11.20
2018-11-10T05:59:26.083Z,11.20
2018-11-10T06:01:54.555Z,11.20
2018-11-10T06:04:22.955Z,11.20
2018-11-10T06:06:51.619Z,11.20
2018-11-10T06:09:20.160Z,11.30
2018-11-10T06:11:48.488Z,11.30
2018-11-10T06:14:16.824Z,11.30
2018-11-10T06:16:45.139Z,11.20
2018-11-10T06:19:13.449Z,11.20
2018-11-10T06:21:41.804Z,11.20
2018-11-10T06:24:10.103Z,11.20
2018-11-10T06:26:38.551Z,11.20
2018-11-10T06:29:06.859Z,11.20
2018-11-10T06:31:35.186Z,11.20
2018-11-10T06:34:03.547Z,11.10
2018-11-10T06:36:31.858Z,11.20
2018-11-10T06:39:00.167Z,11.20
2018-11-10T06:41:28.594Z,11.10
2018-11-10T06:43:56.890Z,11.20
2018-11-10T06:46:25.380Z,11.10
2018-11-10T06:48:53.721Z,11.20
2018-11-10T06:51:22.058Z,11.30
2018-11-10T06:53:50.355Z,11.20
2018-11-10T06:56:18.675Z,11.30
2018-11-10T06:58:47.020Z,11.20
2018-11-10T07:01:15.386Z,11.20
2018-11-10T07:03:43.812Z,11.20
2018-11-10T07:06:12.316Z,11.20
2018-11-10T07:08:40.643Z,11.10
2018-11-10T07:11:08.962Z,11.10
2018-11-10T07:13:37.281Z,11.00
2018-11-10T07:16:05.676Z,11.00
2018-11-10T07:18:34.030Z,11.10
2018-11-10T07:21:02.404Z,11.20
2018-11-10T07:23:30.723Z,11.20
2018-11-10T07:25:59.137Z,11.20
2018-11-10T07:28:27.983Z,11.30
2018-11-10T07:30:56.503Z,11.30
2018-11-10T07:33:25.402Z,11.30
2018-11-10T07:35:53.955Z,11.30
2018-11-10T07:38:22.372Z,11.40
2018-11-10T07:40:50.812Z,11.50
2018-11-10T07:43:19.434Z,11.50
2018-11-10T07:45:47.932Z,11.70
2018-11-10T07:48:16.228Z,11.70
2018-11-10T07:50:44.559Z,11.70
2018-11-10T07:53:12.860Z,11.70
2018-11-10T07:55:41.661Z,11.70
2018-11-10T07:58:09.975Z,11.70
2018-11-10T08:00:38.278Z,11.70
2018-11-10T08:03:06.574Z,11.50
2018-11-10T08:05:34.894Z,11.60
2018-11-10T08:08:03.333Z,11.60
2018-11-10T08:10:31.674Z,11.60
2018-11-10T08:12:59.987Z,11.60
2018-11-10T08:15:28.290Z,11.60
2018-11-10T08:17:56.687Z,11.60
2018-11-10T08:20:25.010Z,11.70
2018-11-10T08:22:54.187Z,11.70
2018-11-10T08:25:23.023Z,11.80
2018-11-10T08:27:52.908Z,11.70
2018-11-10T08:30:22.656Z,11.70
2018-11-10T08:32:52.646Z,11.70
2018-11-10T08:35:22.303Z,11.70
2018-11-10T08:37:52.122Z,11.60
2018-11-10T08:40:21.062Z,11.60
2018-11-10T08:42:49.449Z,11.60
2018-11-10T08:45:17.977Z,11.60
2018-11-10T08:47:46.133Z,11.70
2018-11-10T08:50:15.507Z,11.70
2018-11-10T08:52:43.818Z,11.70
2018-11-10T08:55:12.739Z,11.60
2018-11-10T08:57:41.360Z,11.60
2018-11-10T09:00:10.318Z,11.70
2018-11-10T09:02:38.511Z,11.70
2018-11-10T09:05:07.634Z,11.70
2018-11-10T09:07:36.088Z,11.70
2018-11-10T09:10:04.515Z,11.70
2018-11-10T09:12:32.949Z,11.70
2018-11-10T09:15:01.337Z,11.80
2018-11-10T09:17:29.776Z,11.80
2018-11-10T09:19:58.112Z,11.80
2018-11-10T09:22:26.439Z,11.80
2018-11-10T09:24:54.758Z,11.90
2018-11-10T09:27:23.132Z,11.90
2018-11-10T09:29:51.485Z,11.90
2018-11-10T09:32:19.792Z,11.90
2018-11-10T09:34:48.153Z,11.90
2018-11-10T09:37:16.524Z,11.90
2018-11-10T09:39:44.918Z,12.00
2018-11-10T09:42:13.413Z,12.00
2018-11-10T09:44:41.733Z,12.00
2018-11-10T09:47:09.982Z,12.10
2018-11-10T09:49:38.294Z,12.20
2018-11-10T09:52:06.616Z,12.20
2018-11-10T09:54:34.914Z,12.30
2018-11-10T09:57:03.232Z,12.50
2018-11-10T09:59:31.568Z,12.50
2018-11-10T10:02:00.299Z,12.50
2018-11-10T10:04:28.278Z,12.50
2018-11-10T10:06:56.678Z,12.40
2018-11-10T10:09:25.081Z,12.40
2018-11-10T10:11:53.458Z,12.40
2018-11-10T10:14:21.767Z,12.50
2018-11-10T10:16:50.131Z,12.40
2018-11-10T10:19:18.417Z,12.40
2018-11-10T10:21:46.840Z,12.50
2018-11-10T10:24:15.087Z,12.50
2018-11-10T10:26:43.403Z,12.60
2018-11-10T10:29:11.753Z,12.60
2018-11-10T10:31:40.004Z,12.70
2018-11-10T10:34:08.445Z,12.70
2018-11-10T10:36:36.663Z,12.70
2018-11-10T10:39:07.526Z,12.70
2018-11-10T10:41:36.222Z,12.70
2018-11-10T10:44:05.096Z,12.70
2018-11-10T10:46:33.506Z,12.70
2018-11-10T10:49:01.984Z,12.70
2018-11-10T10:51:30.343Z,12.70
2018-11-10T10:53:58.643Z,12.70
2018-11-10T10:56:26.984Z,12.70
2018-11-10T10:58:55.663Z,12.70
2018-11-10T11:01:29.366Z,12.70
2018-11-10T11:04:04.793Z,12.70
2018-11-10T11:06:33.358Z,12.70
2018-11-10T11:09:02.529Z,12.70
2018-11-10T11:11:31.015Z,12.70
2018-11-10T11:14:05.696Z,12.60
2018-11-10T11:16:34.175Z,12.60
2018-11-10T11:19:02.492Z,12.50
2018-11-10T11:21:30.919Z,12.50
2018-11-10T11:23:59.372Z,12.50
2018-11-10T11:26:27.892Z,12.50
2018-11-10T11:28:56.329Z,12.50
2018-11-10T11:31:24.672Z,12.40
2018-11-10T11:33:53.733Z,12.40
2018-11-10T11:36:21.887Z,12.40
2018-11-10T11:38:56.417Z,12.30
2018-11-10T11:41:25.137Z,12.20
2018-11-10T11:43:53.216Z,12.20
2018-11-10T11:46:21.398Z,12.20
2018-11-10T11:48:49.785Z,12.20
2018-11-10T11:51:17.956Z,12.20
2018-11-10T11:53:46.327Z,12.20
2018-11-10T11:56:14.594Z,12.20
2018-11-10T11:58:42.727Z,12.20
2018-11-10T12:01:11.583Z,12.10
2018-11-10T12:03:39.722Z,12.10
2018-11-10T12:06:08.190Z,12.10
2018-11-10T12:08:36.458Z,12.10
2018-11-10T12:11:05.051Z,12.00
2018-11-10T12:13:33.378Z,12.00
2018-11-10T12:16:01.775Z,11.90
2018-11-10T12:18:30.090Z,11.90
2018-11-10T12:20:58.479Z,11.90
2018-11-10T12:23:26.744Z,11.90
2018-11-10T12:25:55.051Z,11.90
2018-11-10T12:28:23.347Z,11.90
2018-11-10T12:30:51.681Z,11.90
2018-11-10T12:33:19.999Z,11.90
2018-11-10T12:35:48.472Z,11.90
2018-11-10T12:38:16.787Z,11.90
2018-11-10T12:40:45.087Z,11.90
2018-11-10T12:43:13.430Z,11.90
2018-11-10T12:45:41.711Z,11.90
2018-11-10T12:48:10.015Z,11.90
2018-11-10T12:50:38.286Z,11.90
2018-11-10T12:53:06.586Z,11.90
2018-11-10T12:55:36.110Z,11.90
2018-11-10T12:58:04.654Z,11.90
2018-11-10T13:00:32.973Z,11.90
2018-11-10T13:03:01.301Z,11.90
2018-11-10T13:05:29.614Z,11.90
2018-11-10T13:07:58.018Z,11.90
2018-11-10T13:10:26.279Z,12.00
2018-11-10T13:12:54.670Z,12.00
2018-11-10T13:15:23.007Z,12.00
2018-11-10T13:17:51.357Z,12.00
2018-11-10T13:20:19.673Z,12.10
2018-11-10T13:22:48.009Z,12.10
2018-11-10T13:25:16.318Z,12.10
2018-11-10T13:27:45.442Z,12.20
2018-11-10T13:30:14.874Z,12.20
2018-11-10T13:32:43.366Z,12.20
2018-11-10T13:35:12.001Z,12.20
2018-11-10T13:37:40.416Z,12.30
2018-11-10T13:40:09.149Z,12.30
2018-11-10T13:42:37.498Z,12.30
2018-11-10T13:45:07.495Z,12.30
2018-11-10T13:47:35.823Z,12.30
2018-11-10T13:50:04.547Z,12.40
2018-11-10T13:52:34.591Z,12.40
2018-11-10T13:55:02.587Z,12.40
2018-11-10T13:57:30.880Z,12.40
2018-11-10T13:59:59.284Z,12.40
2018-11-10T14:02:27.821Z,12.40
2018-11-10T14:04:56.131Z,12.50
2018-11-10T14:07:24.452Z,12.50
2018-11-10T14:09:52.762Z,12.50
2018-11-10T14:12:21.088Z,12.50
2018-11-10T14:14:49.402Z,12.50
2018-11-10T14:17:17.698Z,12.40
2018-11-10T14:19:46.023Z,12.50
2018-11-10T14:22:14.359Z,12.40
2018-11-10T14:24:42.675Z,12.40
2018-11-10T14:27:10.966Z,12.40
2018-11-10T14:29:39.418Z,12.30
2018-11-10T14:32:07.718Z,12.30
2018-11-10T14:34:36.080Z,12.30
2018-11-10T14:37:04.358Z,12.30
2018-11-10T14:39:32.675Z,12.30
2018-11-10T14:42:00.977Z,12.20
2018-11-10T14:44:29.284Z,12.20
2018-11-10T14:46:57.579Z,12.20
2018-11-10T14:49:32.241Z,12.20
2018-11-10T14:52:00.531Z,12.20
2018-11-10T14:54:28.858Z,12.20
2018-11-10T14:56:57.127Z,12.20
2018-11-10T14:59:25.453Z,12.20
2018-11-10T15:01:53.754Z,12.20
2018-11-10T15:04:22.272Z,12.20
2018-11-10T15:06:50.566Z,12.10
2018-11-10T15:09:18.888Z,12.10
2018-11-10T15:11:47.345Z,12.20
2018-11-10T15:14:15.501Z,12.10
2018-11-10T15:16:43.803Z,12.10
2018-11-10T15:19:12.111Z,12.10
2018-11-10T15:21:40.416Z,12.10
2018-11-10T15:24:08.802Z,12.10
2018-11-10T15:26:37.101Z,12.20
2018-11-10T15:29:05.703Z,12.20
2018-11-10T15:31:34.178Z,12.20
2018-11-10T15:34:02.660Z,12.30
2018-11-10T15:36:30.902Z,12.40
2018-11-10T15:38:59.305Z,12.40
2018-11-10T15:41:28.023Z,12.40
2018-11-10T15:43:56.386Z,12.50
2018-11-10T15:46:24.668Z,12.50
2018-11-10T15:48:53.004Z,12.60
2018-11-10T15:51:21.325Z,12.50
2018-11-10T15:53:49.634Z,12.60
2018-11-10T15:56:17.978Z,12.70
2018-11-10T15:58:46.278Z,12.70
2018-11-10T16:01:14.591Z,12.70
2018-11-10T16:03:42.890Z,12.70
2018-11-10T16:06:11.213Z,12.70
2018-11-10T16:08:54.855Z,12.70
2018-11-10T16:11:38.897Z,12.70
2018-11-10T16:14:20.612Z,12.80
2018-11-10T16:16:48.728Z,12.80
2018-11-10T16:19:17.143Z,12.90
2018-11-10T16:21:45.311Z,12.80
2018-11-10T16:24:13.519Z,12.80
2018-11-10T16:26:41.658Z,12.80
2018-11-10T16:29:09.798Z,12.90
2018-11-10T16:31:37.931Z,12.90
2018-11-10T16:34:06.085Z,12.90
2018-11-10T16:36:34.310Z,12.90
2018-11-10T16:39:02.447Z,13.00
2018-11-10T16:41:31.006Z,13.00
2018-11-10T16:43:59.142Z,13.00
2018-11-10T16:46:27.324Z,12.90
2018-11-10T16:48:55.943Z,13.00
2018-11-10T16:51:24.118Z,12.90
2018-11-10T16:53:52.818Z,13.00
2018-11-10T16:56:21.249Z,13.00
2018-11-10T16:58:49.598Z,13.00
2018-11-10T17:01:17.935Z,13.00
2018-11-10T17:03:46.224Z,12.90
2018-11-10T17:06:14.527Z,12.90
2018-11-10T17:08:42.957Z,12.90
2018-11-10T17:11:11.226Z,12.90
2018-11-10T17:13:39.567Z,12.90
2018-11-10T17:16:07.851Z,12.90
2018-11-10T17:18:36.120Z,12.90
2018-11-10T17:21:04.560Z,12.90
2018-11-10T17:23:37.074Z,12.90
2018-11-10T17:26:12.479Z,12.80
2018-11-10T17:28:40.672Z,12.90
2018-11-10T17:31:08.840Z,12.80
2018-11-10T17:33:37.003Z,12.80
2018-11-10T17:36:05.470Z,12.80
2018-11-10T17:38:33.914Z,12.80
2018-11-10T17:41:02.088Z,13.00
2018-11-10T17:43:30.455Z,13.00
2018-11-10T17:48:35.659Z,12.90
2018-11-10T17:51:03.826Z,12.90
2018-11-10T17:53:31.964Z,13.00
2018-11-10T17:56:00.342Z,13.00
2018-11-10T17:58:28.515Z,12.90
2018-11-10T18:00:56.647Z,12.90
2018-11-10T18:03:24.775Z,13.00
2018-11-10T18:05:52.934Z,13.00
2018-11-10T18:08:21.110Z,13.00
2018-11-10T18:10:49.245Z,13.00
2018-11-10T18:13:17.654Z,13.10
2018-11-10T18:15:46.058Z,13.10
2018-11-10T18:18:14.203Z,13.10
2018-11-10T18:20:42.658Z,13.00
2018-11-10T18:23:11.154Z,13.10
2018-11-10T18:25:39.348Z,13.10
2018-11-10T18:28:07.486Z,13.10
2018-11-10T18:30:35.610Z,13.10
2018-11-10T18:33:03.771Z,13.10
2018-11-10T18:35:31.936Z,13.10
2018-11-10T18:38:00.087Z,13.00
2018-11-10T18:40:28.236Z,13.10
2018-11-10T18:42:56.462Z,13.00
2018-11-10T18:45:24.606Z,13.00
2018-11-10T18:47:59.544Z,13.10
2018-11-10T18:50:27.909Z,13.10
2018-11-10T18:52:56.242Z,13.10
2018-11-10T18:55:24.546Z,13.10
2018-11-10T18:57:52.943Z,13.10
2018-11-10T19:00:21.167Z,13.10
2018-11-10T19:02:49.481Z,13.00
2018-11-10T19:05:18.118Z,13.10
2018-11-10T19:07:46.607Z,13.10
2018-11-10T19:10:16.315Z,13.10
2018-11-10T19:12:44.774Z,13.10
2018-11-10T19:15:16.467Z,13.10
2018-11-10T19:17:44.929Z,13.10
2018-11-10T19:20:14.036Z,13.20
2018-11-10T19:22:42.386Z,13.10
2018-11-10T19:25:11.844Z,13.10
2018-11-10T19:27:40.207Z,13.00
2018-11-10T19:30:12.196Z,12.90
2018-11-10T19:32:40.670Z,12.90
2018-11-10T19:35:09.032Z,13.00
2018-11-10T19:37:37.359Z,13.00
2018-11-10T19:40:06.707Z,13.00
2018-11-10T19:42:35.033Z,13.10
2018-11-10T19:45:03.375Z,13.10
2018-11-10T19:47:31.677Z,13.00
2018-11-10T19:50:00.173Z,12.90
2018-11-10T19:52:28.477Z,12.90
2018-11-10T19:54:56.800Z,12.80
2018-11-10T19:57:25.171Z,12.80
2018-11-10T19:59:53.516Z,12.90
2018-11-10T20:02:21.872Z,12.90
2018-11-10T20:04:50.180Z,12.90
2018-11-10T20:07:18.612Z,12.90
2018-11-10T20:09:46.895Z,12.70
2018-11-10T20:12:15.303Z,12.80
2018-11-10T20:14:43.631Z,12.70
2018-11-10T20:17:11.956Z,12.70
2018-11-10T20:19:40.438Z,12.60
2018-11-10T20:22:08.810Z,12.60
2018-11-10T20:24:37.154Z,12.60
2018-11-10T20:27:05.503Z,12.70
2018-11-10T20:29:33.831Z,12.70
2018-11-10T20:32:02.144Z,12.70
2018-11-10T20:34:30.475Z,12.70
2018-11-10T20:36:58.849Z,12.70
2018-11-10T20:39:27.159Z,12.70
2018-11-10T20:41:55.443Z,12.70
2018-11-10T20:44:23.749Z,12.70
2018-11-10T20:46:52.058Z,12.70
2018-11-10T20:49:20.395Z,12.70
2018-11-10T20:51:49.026Z,12.70
2018-11-10T20:54:17.665Z,12.70
2018-11-10T20:56:46.379Z,12.70
2018-11-10T20:59:15.050Z,12.70
2018-11-10T21:01:43.652Z,12.70
2018-11-10T21:04:11.955Z,12.70
2018-11-10T21:06:40.412Z,12.70
2018-11-10T21:09:10.411Z,12.80
2018-11-10T21:11:38.715Z,12.80
2018-11-10T21:14:07.236Z,12.80
2018-11-10T21:16:35.748Z,12.80
2018-11-10T21:19:04.209Z,12.80
2018-11-10T21:21:32.588Z,12.80
2018-11-10T21:24:00.877Z,12.70
2018-11-10T21:26:29.148Z,12.70
2018-11-10T21:28:57.699Z,12.70
2018-11-10T21:31:26.051Z,12.70
2018-11-10T21:33:54.468Z,12.60
2018-11-10T21:36:22.796Z,12.70
2018-11-10T21:38:51.089Z,12.70
2018-11-10T21:41:19.394Z,12.60
2018-11-10T21:43:47.787Z,12.60
2018-11-10T21:46:15.968Z,12.60
2018-11-10T21:48:44.254Z,12.60
2018-11-10T21:51:12.571Z,12.60
2018-11-10T21:53:40.866Z,12.60
2018-11-10T21:56:09.334Z,12.60
2018-11-10T21:58:37.642Z,12.60
2018-11-10T22:01:05.984Z,12.70
2018-11-10T22:03:34.296Z,12.70
2018-11-10T22:06:02.768Z,12.60
2018-11-10T22:08:34.159Z,12.50
2018-11-10T22:11:03.550Z,12.50
2018-11-10T22:13:31.924Z,12.40
2018-11-10T22:16:00.376Z,12.40
2018-11-10T22:18:28.663Z,12.40
2018-11-10T22:20:56.943Z,12.40
2018-11-10T22:23:25.271Z,12.30
2018-11-10T22:25:53.572Z,12.30
2018-11-10T22:28:21.886Z,12.20
2018-11-10T22:30:50.278Z,12.20
2018-11-10T22:33:18.552Z,12.20
2018-11-10T22:35:46.839Z,12.30
2018-11-10T22:38:15.153Z,12.30
2018-11-10T22:40:43.439Z,12.40
2018-11-10T22:43:11.754Z,12.40
2018-11-10T22:45:40.042Z,12.40
2018-11-10T22:48:08.394Z,12.40
2018-11-10T22:50:36.639Z,12.40
2018-11-10T22:53:05.237Z,12.30
2018-11-10T22:55:33.534Z,12.30
2018-11-10T22:58:01.838Z,12.30
2018-11-10T23:00:30.119Z,12.40
2018-11-10T23:02:59.752Z,12.30
2018-11-10T23:05:28.129Z,12.30
2018-11-10T23:07:56.452Z,12.30
2018-11-10T23:10:24.750Z,12.30
2018-11-10T23:12:53.829Z,12.30
2018-11-10T23:15:22.150Z,12.20
2018-11-10T23:17:50.458Z,12.10
2018-11-10T23:20:19.613Z,12.10
2018-11-10T23:22:48.059Z,12.00
2018-11-10T23:25:17.304Z,12.00
2018-11-10T23:27:45.679Z,12.00
2018-11-10T23:30:16.089Z,12.00
2018-11-10T23:32:44.351Z,12.00
2018-11-10T23:35:12.971Z,12.10
2018-11-10T23:37:41.335Z,12.00
2018-11-10T23:40:11.703Z,12.10
2018-11-10T23:42:40.691Z,12.20
2018-11-10T23:45:09.309Z,12.10
2018-11-10T23:47:38.260Z,12.20
2018-11-10T23:50:07.723Z,12.20
2018-11-10T23:52:36.242Z,12.20
2018-11-10T23:55:04.728Z,12.20
2018-11-10T23:57:33.012Z,12.20
